Time;durP1;ratioP1;P1;durP2;ratioP2;P2;SDS_P1;SDS_P2;PMS_P1;PMS_P2;Temp;Humidity;BMP_temperature;BMP_pressure;BME280_temperature;BME280_humidity;BME280_pressure;Samples;Min_cycle;Max_cycle;Signal;HPM_P1;HPM_P2
2023/04/17 00:00:35;;;;;;;33.83;23.73;;;;;;;-146.25;100.00;52345.91;2096225;28;35003;-74
2023/04/17 00:01:37;;;;;;;30.23;22.75;;;;;;;-146.25;100.00;52368.19;2096244;28;34288;-73
2023/04/17 00:02:43;;;;;;;32.17;23.48;;;;;;;-146.25;100.00;52319.53;2096384;28;30776;-73
2023/04/17 00:03:45;;;;;;;28.88;22.10;;;;;;;-146.25;100.00;52360.09;2096471;28;36809;-74
2023/04/17 00:04:47;;;;;;;31.23;23.30;;;;;;;-146.25;100.00;52319.53;2095943;28;34748;-73
2023/04/17 00:05:52;;;;;;;33.90;24.48;;;;;;;-146.25;100.00;52364.13;2096361;28;35872;-74
2023/04/17 00:06:54;;;;;;;29.45;23.83;;;;;;;-146.25;100.00;52347.91;2096177;28;36642;-73
2023/04/17 00:07:59;;;;;;;34.85;25.88;;;;;;;-146.25;100.00;52386.44;2096120;28;20045;-73
2023/04/17 00:09:03;;;;;;;32.42;25.67;;;;;;;-146.25;100.00;52349.94;2095155;28;37680;-73
2023/04/17 00:10:09;;;;;;;33.88;24.73;;;;;;;-146.25;100.00;52347.91;2096521;28;20330;-73
2023/04/17 00:11:11;;;;;;;33.05;24.20;;;;;;;-146.25;100.00;52388.47;2095461;28;31330;-72
2023/04/17 00:12:13;;;;;;;35.65;25.92;;;;;;;-146.25;100.00;52376.31;2095484;28;36005;-73
2023/04/17 00:13:15;;;;;;;34.10;25.40;;;;;;;-146.25;100.00;52360.09;2096196;28;33738;-73
2023/04/17 00:14:16;;;;;;;32.35;24.42;;;;;;;-146.25;100.00;52339.81;2095999;28;36897;-72
2023/04/17 00:15:18;;;;;;;34.88;24.88;;;;;;;-146.25;100.00;52349.94;2095744;28;34759;-72
2023/04/17 00:16:22;;;;;;;36.63;25.95;;;;;;;-146.25;100.00;52325.63;2095388;28;34881;-73
2023/04/17 00:17:24;;;;;;;34.22;23.58;;;;;;;-146.25;100.00;52351.97;2096138;28;33389;-72
2023/04/17 00:18:26;;;;;;;33.83;25.27;;;;;;;-146.25;100.00;52295.19;2095783;28;20041;-71
2023/04/17 00:19:27;;;;;;;35.05;24.83;;;;;;;-146.25;100.00;52354.00;2096282;28;20111;-72
2023/04/17 00:20:29;;;;;;;33.10;25.85;;;;;;;-146.25;100.00;52360.09;2096144;28;38926;-73
2023/04/17 00:21:31;;;;;;;35.78;26.02;;;;;;;-146.25;100.00;52347.91;2095799;28;34579;-72
2023/04/17 00:22:33;;;;;;;35.55;26.08;;;;;;;-146.25;100.00;52368.19;2096694;28;32323;-72
2023/04/17 00:23:35;;;;;;;35.45;26.35;;;;;;;-146.25;100.00;52356.03;2096146;28;38034;-73
2023/04/17 00:24:37;;;;;;;30.27;24.10;;;;;;;-146.25;100.00;52347.91;2096279;28;33291;-73
2023/04/17 00:25:41;;;;;;;35.30;26.08;;;;;;;-146.25;100.00;52378.34;2096546;28;20973;-74
2023/04/17 00:26:43;;;;;;;31.15;23.92;;;;;;;-146.25;100.00;52362.13;2095588;28;31929;-74
2023/04/17 00:27:45;;;;;;;31.90;24.80;;;;;;;-146.25;100.00;52329.66;2096366;28;29338;-72
2023/04/17 00:28:48;;;;;;;32.38;25.83;;;;;;;-146.25;100.00;52364.13;2096366;28;20045;-73
2023/04/17 00:29:50;;;;;;;35.20;27.67;;;;;;;-146.25;100.00;52347.91;2095855;28;21051;-73
2023/04/17 00:30:52;;;;;;;38.45;27.55;;;;;;;-146.25;100.00;52360.09;2087671;28;20258;-73
2023/04/17 00:31:54;;;;;;;36.22;27.50;;;;;;;-146.25;100.00;52347.91;2096151;28;20159;-73
2023/04/17 00:32:55;;;;;;;33.97;25.92;;;;;;;-146.25;100.00;52362.13;2095902;28;20802;-73
2023/04/17 00:34:00;;;;;;;38.92;27.80;;;;;;;-146.25;100.00;52366.16;2095539;28;27977;-73
2023/04/17 00:35:02;;;;;;;35.03;26.75;;;;;;;-146.25;100.00;52335.75;2095323;28;33374;-72
2023/04/17 00:36:05;;;;;;;37.80;26.67;;;;;;;-146.25;100.00;52358.06;2095606;28;32342;-73
2023/04/17 00:37:07;;;;;;;36.17;27.63;;;;;;;-146.25;100.00;52382.38;2095900;28;35824;-72
2023/04/17 00:38:08;;;;;;;37.08;27.33;;;;;;;-146.25;100.00;52351.97;2095993;28;20434;-74
2023/04/17 00:39:10;;;;;;;43.47;28.35;;;;;;;-146.25;100.00;52376.31;2087271;28;33028;-73
2023/04/17 00:40:12;;;;;;;39.70;28.50;;;;;;;-146.25;100.00;52331.69;2095816;28;24175;-72
2023/04/17 00:41:14;;;;;;;35.03;26.95;;;;;;;-146.25;100.00;52347.91;2095253;28;35603;-72
2023/04/17 00:42:16;;;;;;;34.75;26.05;;;;;;;-146.25;100.00;52343.88;2086854;28;27389;-72
2023/04/17 00:43:17;;;;;;;37.50;28.63;;;;;;;-146.25;100.00;52337.78;2086909;28;29876;-72
2023/04/17 00:44:20;;;;;;;36.80;27.30;;;;;;;-146.25;100.00;52394.56;2096680;28;20857;-72
2023/04/17 00:45:22;;;;;;;36.58;27.95;;;;;;;-146.25;100.00;52351.97;2096692;28;20156;-74
2023/04/17 00:46:24;;;;;;;35.92;25.88;;;;;;;-146.25;100.00;52327.66;2096276;28;27519;-71
2023/04/17 00:47:26;;;;;;;37.50;28.52;;;;;;;-146.25;100.00;52347.91;2095306;28;26050;-72
2023/04/17 00:48:28;;;;;;;38.00;26.98;;;;;;;-146.25;100.00;52341.84;2087359;28;20155;-72
2023/04/17 00:49:31;;;;;;;37.38;29.02;;;;;;;-146.25;100.00;52362.13;2096029;28;20053;-71
2023/04/17 00:50:34;;;;;;;35.67;27.02;;;;;;;-146.25;100.00;52343.88;2095737;28;32539;-73
2023/04/17 00:51:37;;;;;;;38.28;28.20;;;;;;;-146.25;100.00;52380.38;2096081;28;20037;-73
2023/04/17 00:52:39;;;;;;;38.88;27.92;;;;;;;-146.25;100.00;52315.47;2096122;28;20972;-73
2023/04/17 00:53:41;;;;;;;34.97;26.48;;;;;;;-146.25;100.00;52351.97;2096013;28;31710;-73
2023/04/17 00:54:43;;;;;;;39.22;28.63;;;;;;;-146.25;100.00;52349.94;2096805;28;20037;-71
2023/04/17 00:55:49;;;;;;;36.42;27.88;;;;;;;-146.25;100.00;52349.94;2095656;28;20151;-73
2023/04/17 00:56:55;;;;;;;38.35;27.75;;;;;;;-146.25;100.00;52368.19;2086833;28;27559;-72
2023/04/17 00:57:57;;;;;;;39.13;28.52;;;;;;;-146.25;100.00;52386.44;2079621;28;28076;-72
2023/04/17 00:59:00;;;;;;;39.70;28.38;;;;;;;-146.25;100.00;52339.81;2087302;28;28684;-72
2023/04/17 01:00:04;;;;;;;35.22;26.88;;;;;;;-146.25;100.00;52339.81;2087217;28;20045;-73
2023/04/17 01:01:08;;;;;;;36.50;26.77;;;;;;;-146.25;100.00;52364.13;2079571;28;20891;-72
2023/04/17 01:02:11;;;;;;;37.20;27.23;;;;;;;-146.25;100.00;52392.53;2079044;28;32973;-72
2023/04/17 01:03:15;;;;;;;39.78;28.98;;;;;;;-146.25;100.00;52341.84;2086640;28;29490;-73
2023/04/17 01:04:17;;;;;;;35.67;27.13;;;;;;;-146.25;100.00;52349.94;2087737;28;20279;-72
2023/04/17 01:05:20;;;;;;;38.88;27.67;;;;;;;-146.25;100.00;52358.06;2089045;28;20136;-72
2023/04/17 01:06:22;;;;;;;39.60;27.90;;;;;;;-146.25;100.00;52333.72;2089403;28;20925;-72
2023/04/17 01:07:24;;;;;;;37.38;28.23;;;;;;;-146.25;100.00;52360.09;2088686;28;24899;-72
2023/04/17 01:08:26;;;;;;;35.85;28.05;;;;;;;-146.25;100.00;52343.88;2088825;28;21036;-73
2023/04/17 01:09:29;;;;;;;37.63;27.90;;;;;;;-146.25;100.00;52327.66;2088754;28;25323;-73
2023/04/17 01:10:30;;;;;;;40.00;28.52;;;;;;;-146.25;100.00;52349.94;2080717;28;20046;-72
2023/04/17 01:11:33;;;;;;;38.03;27.55;;;;;;;-146.25;100.00;52311.44;2087562;28;20037;-72
2023/04/17 01:12:35;;;;;;;35.58;26.85;;;;;;;-146.25;100.00;52335.75;2096564;28;28643;-74
2023/04/17 01:13:47;;;;;;;36.03;27.48;;;;;;;-146.25;100.00;52339.81;2088757;28;20161;-73
2023/04/17 01:14:56;;;;;;;35.92;27.15;;;;;;;-146.25;100.00;52368.19;2090109;28;20119;-73
2023/04/17 01:15:58;;;;;;;39.28;27.67;;;;;;;-146.25;100.00;52303.31;2096563;28;20180;-74
2023/04/17 01:16:59;;;;;;;36.60;26.23;;;;;;;-146.25;100.00;52323.59;2087931;28;20053;-74
2023/04/17 01:18:02;;;;;;;37.72;27.40;;;;;;;-146.25;100.00;52370.22;2087903;28;20431;-73
2023/04/17 01:19:04;;;;;;;32.30;25.60;;;;;;;-146.25;100.00;52356.03;2087883;28;28281;-72
2023/04/17 01:20:09;;;;;;;36.10;27.25;;;;;;;-146.25;100.00;52392.53;2088236;28;20045;-72
2023/04/17 01:21:11;;;;;;;34.65;26.63;;;;;;;-146.25;100.00;52392.53;2095549;28;24065;-72
2023/04/17 01:22:18;;;;;;;33.33;26.15;;;;;;;-146.25;100.00;52313.44;2087966;28;20069;-72
2023/04/17 01:23:22;;;;;;;35.73;27.47;;;;;;;-146.25;100.00;52366.16;2080799;28;20045;-72
2023/04/17 01:24:24;;;;;;;36.60;27.40;;;;;;;-146.25;100.00;52337.78;2088241;28;21053;-72
2023/04/17 01:25:27;;;;;;;39.10;27.70;;;;;;;-146.25;100.00;52311.44;2087941;28;20108;-72
2023/04/17 01:26:31;;;;;;;35.53;26.50;;;;;;;-146.25;100.00;52319.53;2084666;28;20534;-72
2023/04/17 01:27:34;;;;;;;34.95;26.52;;;;;;;-146.25;100.00;52358.06;2088275;28;20870;-72
2023/04/17 01:28:35;;;;;;;36.00;27.13;;;;;;;-146.25;100.00;52366.16;2096473;28;28247;-72
2023/04/17 01:29:37;;;;;;;35.42;26.75;;;;;;;-146.25;100.00;52398.59;2097079;28;29997;-72
2023/04/17 01:30:39;;;;;;;36.10;26.27;;;;;;;-146.25;100.00;52319.53;2105211;28;20280;-73
2023/04/17 01:31:42;;;;;;;36.58;27.23;;;;;;;-146.25;100.00;52364.13;2096894;28;20821;-74
2023/04/17 01:32:44;;;;;;;35.90;26.98;;;;;;;-146.25;100.00;52325.63;2096526;28;27326;-73
2023/04/17 01:33:47;;;;;;;38.00;27.42;;;;;;;-146.25;100.00;52418.88;2097252;28;26245;-73
2023/04/17 01:34:49;;;;;;;36.60;27.27;;;;;;;-146.25;100.00;52335.75;2105039;28;31888;-72
2023/04/17 01:35:50;;;;;;;34.78;26.25;;;;;;;-146.25;100.00;52366.16;2105396;28;20170;-72
2023/04/17 01:36:52;;;;;;;35.60;28.75;;;;;;;-146.25;100.00;52347.91;2105197;28;31151;-74
2023/04/17 01:37:54;;;;;;;37.08;27.20;;;;;;;-146.25;100.00;52345.91;2097639;28;29218;-72
2023/04/17 01:38:58;;;;;;;37.90;28.27;;;;;;;-146.25;100.00;52354.00;2097093;28;20813;-72
2023/04/17 01:39:59;;;;;;;36.67;27.55;;;;;;;-146.25;100.00;52364.13;2096798;28;29897;-74
2023/04/17 01:41:08;;;;;;;37.03;26.83;;;;;;;-146.25;100.00;52354.00;2096964;28;20118;-73
2023/04/17 01:42:10;;;;;;;37.55;28.27;;;;;;;-146.25;100.00;52351.97;2097713;28;20052;-72
2023/04/17 01:43:12;;;;;;;39.92;29.58;;;;;;;-146.25;100.00;52356.03;2096546;28;20965;-72
2023/04/17 01:44:13;;;;;;;39.13;29.42;;;;;;;-146.25;100.00;52358.06;2088142;28;21224;-72
2023/04/17 01:45:15;;;;;;;41.40;29.48;;;;;;;-146.25;100.00;52378.34;2080649;28;20085;-73
2023/04/17 01:46:17;;;;;;;39.75;29.25;;;;;;;-146.25;100.00;52360.09;2088480;28;21832;-72
2023/04/17 01:47:19;;;;;;;41.28;30.48;;;;;;;-146.25;100.00;52370.22;2096979;28;24208;-72
2023/04/17 01:48:20;;;;;;;38.75;28.88;;;;;;;-146.25;100.00;52321.56;2105463;28;20186;-73
2023/04/17 01:49:22;;;;;;;37.88;28.70;;;;;;;-146.25;100.00;52376.31;2096190;28;34430;-72
2023/04/17 01:50:24;;;;;;;39.05;29.58;;;;;;;-146.25;100.00;52333.72;2088800;28;20037;-72
2023/04/17 01:51:26;;;;;;;38.88;28.77;;;;;;;-146.25;100.00;52356.03;2088580;28;29965;-72
2023/04/17 01:52:28;;;;;;;38.45;28.30;;;;;;;-146.25;100.00;52360.09;2088778;28;20053;-72
2023/04/17 01:53:31;;;;;;;43.63;31.20;;;;;;;-146.25;100.00;52364.13;2088268;28;34307;-74
2023/04/17 01:54:33;;;;;;;39.88;28.60;;;;;;;-146.25;100.00;52366.16;2096403;28;21225;-72
2023/04/17 01:55:34;;;;;;;38.55;29.05;;;;;;;-146.25;100.00;52325.63;2096760;28;26866;-72
2023/04/17 01:56:36;;;;;;;38.70;28.58;;;;;;;-146.25;100.00;52364.13;2096743;28;21068;-72
2023/04/17 01:57:38;;;;;;;35.47;27.90;;;;;;;-146.25;100.00;52327.66;2096860;28;20045;-72
2023/04/17 01:58:40;;;;;;;38.10;28.08;;;;;;;-146.25;100.00;52360.09;2105568;28;20040;-72
2023/04/17 01:59:42;;;;;;;41.05;30.00;;;;;;;-146.25;100.00;52360.09;2088562;28;20814;-73
2023/04/17 02:00:49;;;;;;;39.35;29.85;;;;;;;-146.25;100.00;52378.34;2079973;28;20042;-72
2023/04/17 02:01:52;;;;;;;38.72;29.02;;;;;;;-146.25;100.00;52347.91;2096826;28;20143;-73
2023/04/17 02:02:54;;;;;;;42.42;30.42;;;;;;;-146.25;100.00;52362.13;2096999;28;20052;-73
2023/04/17 02:03:57;;;;;;;36.42;28.35;;;;;;;-146.25;100.00;52364.13;2097420;28;20034;-73
2023/04/17 02:05:01;;;;;;;41.33;28.13;;;;;;;-146.25;100.00;52347.91;2096851;28;20061;-72
2023/04/17 02:06:04;;;;;;;39.13;29.33;;;;;;;-146.25;100.00;52349.94;2096237;28;36985;-73
2023/04/17 02:07:05;;;;;;;36.30;26.77;;;;;;;-146.25;100.00;52335.75;2097216;28;25682;-72
2023/04/17 02:08:07;;;;;;;33.83;26.38;;;;;;;-146.25;100.00;52362.13;2096943;28;23107;-72
2023/04/17 02:09:09;;;;;;;41.95;29.77;;;;;;;-146.25;100.00;52360.09;2096894;28;23260;-72
2023/04/17 02:10:12;;;;;;;42.83;29.60;;;;;;;-146.25;100.00;52351.97;2096862;28;20064;-73
2023/04/17 02:11:14;;;;;;;45.50;31.83;;;;;;;-146.25;100.00;52368.19;2079897;28;29860;-72
2023/04/17 02:12:16;;;;;;;38.38;28.45;;;;;;;-146.25;100.00;52384.41;2088014;28;24038;-72
2023/04/17 02:13:18;;;;;;;39.03;29.67;;;;;;;-146.25;100.00;52376.31;2096756;28;20132;-72
2023/04/17 02:14:20;;;;;;;35.78;27.33;;;;;;;-146.25;100.00;52356.03;2096760;28;20034;-72
2023/04/17 02:15:22;;;;;;;34.97;25.98;;;;;;;-146.25;100.00;52364.13;2105469;28;20154;-72
2023/04/17 02:16:27;;;;;;;41.60;30.05;;;;;;;-146.25;100.00;52333.72;2096222;28;20138;-73
2023/04/17 02:17:29;;;;;;;41.80;30.27;;;;;;;-146.25;100.00;52327.66;2088343;28;32413;-73
2023/04/17 02:18:31;;;;;;;40.72;28.27;;;;;;;-146.25;100.00;52343.88;2096900;28;22209;-73
2023/04/17 02:19:34;;;;;;;39.22;29.15;;;;;;;-146.25;100.00;52351.97;2105219;28;20055;-72
2023/04/17 02:20:37;;;;;;;40.83;30.60;;;;;;;-146.25;100.00;52347.91;2096774;28;20040;-72
2023/04/17 02:21:39;;;;;;;40.75;29.15;;;;;;;-146.25;100.00;52349.94;2087993;28;27524;-73
2023/04/17 02:22:41;;;;;;;40.60;28.23;;;;;;;-146.25;100.00;52396.59;2096542;28;21587;-73
2023/04/17 02:23:43;;;;;;;34.80;26.52;;;;;;;-146.25;100.00;52374.28;2097288;28;20106;-73
2023/04/17 02:24:45;;;;;;;43.58;29.92;;;;;;;-146.25;100.00;52364.13;2097069;28;32508;-73
2023/04/17 02:25:46;;;;;;;41.20;29.42;;;;;;;-146.25;100.00;52337.78;2097459;28;20045;-73
2023/04/17 02:26:49;;;;;;;39.45;29.50;;;;;;;-146.25;100.00;52331.69;2097383;28;20906;-73
2023/04/17 02:27:50;;;;;;;37.42;28.25;;;;;;;-146.25;100.00;52343.88;2079674;28;31119;-73
2023/04/17 02:28:53;;;;;;;44.78;32.03;;;;;;;-146.25;100.00;52364.13;2080540;28;20073;-72
2023/04/17 02:29:55;;;;;;;41.72;30.05;;;;;;;-146.25;100.00;52366.16;2096267;28;20041;-73
2023/04/17 02:30:58;;;;;;;41.65;29.60;;;;;;;-146.25;100.00;52335.75;2096045;28;31586;-73
2023/04/17 02:32:03;;;;;;;39.63;28.17;;;;;;;-146.25;100.00;52380.38;2096509;28;20050;-73
2023/04/17 02:33:04;;;;;;;44.58;31.75;;;;;;;-146.25;100.00;52366.16;2088902;28;20163;-72
2023/04/17 02:34:06;;;;;;;41.85;30.45;;;;;;;-146.25;100.00;52366.16;2096542;28;20866;-73
2023/04/17 02:35:09;;;;;;;38.70;30.23;;;;;;;-146.25;100.00;52364.13;2097214;28;20040;-73
2023/04/17 02:36:11;;;;;;;40.30;29.50;;;;;;;-146.25;100.00;52349.94;2096937;28;20107;-73
2023/04/17 02:37:15;;;;;;;44.95;30.77;;;;;;;-146.25;100.00;52345.91;2096679;28;20064;-72
2023/04/17 02:38:17;;;;;;;43.38;30.75;;;;;;;-146.25;100.00;52343.88;2096665;28;20906;-73
2023/04/17 02:39:19;;;;;;;43.42;33.05;;;;;;;-146.25;100.00;52339.81;2096817;28;20937;-73
2023/04/17 02:40:21;;;;;;;40.05;29.88;;;;;;;-146.25;100.00;52406.72;2096261;28;22149;-73
2023/04/17 02:41:29;;;;;;;41.05;29.08;;;;;;;-146.25;100.00;52360.09;2088018;28;20053;-73
2023/04/17 02:42:33;;;;;;;46.42;32.72;;;;;;;-146.25;100.00;52370.22;2089211;28;20199;-72
2023/04/17 02:43:36;;;;;;;39.55;29.48;;;;;;;-146.25;100.00;52360.09;2096670;28;20830;-72
2023/04/17 02:44:39;;;;;;;37.50;28.30;;;;;;;-146.25;100.00;52358.06;2087949;28;21539;-72
2023/04/17 02:45:40;;;;;;;44.55;29.98;;;;;;;-146.25;100.00;52343.88;2088339;28;20107;-72
2023/04/17 02:46:42;;;;;;;43.17;31.17;;;;;;;-146.25;100.00;52368.19;2096630;28;20092;-72
2023/04/17 02:47:44;;;;;;;44.20;30.70;;;;;;;-146.25;100.00;52347.91;2097531;28;20036;-72
2023/04/17 02:48:47;;;;;;;39.90;30.10;;;;;;;-146.25;100.00;52339.81;2096437;28;20033;-72
2023/04/17 02:49:48;;;;;;;41.30;30.77;;;;;;;-146.25;100.00;52374.28;2096566;28;20877;-72
2023/04/17 02:50:53;;;;;;;42.22;30.75;;;;;;;-146.25;100.00;52372.25;2096131;28;20177;-71
2023/04/17 02:51:55;;;;;;;42.67;31.65;;;;;;;-146.25;100.00;52349.94;2096748;28;20692;-74
2023/04/17 02:52:57;;;;;;;40.42;30.27;;;;;;;-146.25;100.00;52382.38;2095685;28;23493;-74
2023/04/17 02:53:59;;;;;;;41.85;30.60;;;;;;;-146.25;100.00;52368.19;2096413;28;21247;-74
2023/04/17 02:55:01;;;;;;;38.85;28.88;;;;;;;-146.25;100.00;52339.81;2096933;28;20033;-74
2023/04/17 02:56:04;;;;;;;37.45;28.48;;;;;;;-146.25;100.00;52368.19;2096333;28;20915;-74
2023/04/17 02:57:07;;;;;;;41.38;29.95;;;;;;;-146.25;100.00;52356.03;2096436;28;20086;-74
2023/04/17 02:58:12;;;;;;;40.35;29.08;;;;;;;-146.25;100.00;52372.25;2096587;28;20041;-74
2023/04/17 02:59:14;;;;;;;41.45;28.85;;;;;;;-146.25;100.00;52360.09;2089103;28;20069;-74
2023/04/17 03:00:16;;;;;;;39.38;29.42;;;;;;;-146.25;100.00;52339.81;2096574;28;20037;-74
2023/04/17 03:01:18;;;;;;;41.63;30.60;;;;;;;-146.25;100.00;52329.66;2096243;28;25475;-73
2023/04/17 03:02:20;;;;;;;40.45;30.27;;;;;;;-146.25;100.00;52370.22;2096432;28;20074;-72
2023/04/17 03:03:22;;;;;;;42.28;30.50;;;;;;;-146.25;100.00;52388.47;2096322;28;20040;-72
2023/04/17 03:04:26;;;;;;;45.30;31.60;;;;;;;-146.25;100.00;52368.19;2088513;28;29769;-72
2023/04/17 03:05:29;;;;;;;41.00;30.05;;;;;;;-146.25;100.00;52347.91;2087536;28;20165;-74
2023/04/17 03:06:33;;;;;;;42.92;30.13;;;;;;;-146.25;100.00;52374.28;2079830;28;20054;-73
2023/04/17 03:07:35;;;;;;;44.97;30.38;;;;;;;-146.25;100.00;52356.03;2079980;28;20038;-71
2023/04/17 03:08:37;;;;;;;48.58;33.15;;;;;;;-146.25;100.00;52351.97;2071811;28;20152;-72
2023/04/17 03:09:39;;;;;;;43.85;30.15;;;;;;;-146.25;100.00;52358.06;2071957;28;20169;-73
2023/04/17 03:10:41;;;;;;;42.67;30.63;;;;;;;-146.25;100.00;52347.91;2079902;28;20054;-74
2023/04/17 03:11:43;;;;;;;42.83;31.77;;;;;;;-146.25;100.00;52368.19;2087802;28;20038;-73
2023/04/17 03:12:45;;;;;;;40.35;30.10;;;;;;;-146.25;100.00;52372.25;2087750;28;20140;-74
2023/04/17 03:13:47;;;;;;;37.10;28.55;;;;;;;-146.25;100.00;52366.16;2087961;28;21011;-73
2023/04/17 03:14:49;;;;;;;40.70;30.02;;;;;;;-146.25;100.00;52351.97;2087489;28;33204;-74
2023/04/17 03:15:51;;;;;;;42.83;32.25;;;;;;;-146.25;100.00;52347.91;2088228;28;20041;-72
2023/04/17 03:16:56;;;;;;;42.22;30.90;;;;;;;-146.25;100.00;52388.47;2079866;28;20084;-72
2023/04/17 03:17:58;;;;;;;40.63;30.63;;;;;;;-146.25;100.00;52343.88;2080050;28;20360;-72
2023/04/17 03:19:01;;;;;;;42.08;31.15;;;;;;;-146.25;100.00;52378.34;2080030;28;20426;-73
2023/04/17 03:20:06;;;;;;;44.90;32.63;;;;;;;-146.25;100.00;52343.88;2088312;28;21251;-72
2023/04/17 03:21:08;;;;;;;44.22;31.73;;;;;;;-146.25;100.00;52376.31;2095796;28;25483;-72
2023/04/17 03:22:09;;;;;;;45.67;32.58;;;;;;;-146.25;100.00;52337.78;2088115;28;20042;-72
2023/04/17 03:23:14;;;;;;;42.78;31.38;;;;;;;-146.25;100.00;52349.94;2088348;28;20042;-72
2023/04/17 03:24:16;;;;;;;44.90;31.33;;;;;;;-146.25;100.00;52323.59;2087902;28;20041;-72
2023/04/17 03:25:18;;;;;;;46.85;34.05;;;;;;;-146.25;100.00;52360.09;2079922;28;25721;-72
2023/04/17 03:26:26;;;;;;;44.60;31.80;;;;;;;-146.25;100.00;52360.09;2088372;28;20030;-72
2023/04/17 03:27:28;;;;;;;44.78;32.97;;;;;;;-146.25;100.00;52329.66;2079271;28;20167;-73
2023/04/17 03:28:30;;;;;;;43.03;30.95;;;;;;;-146.25;100.00;52364.13;2079235;28;20088;-72
2023/04/17 03:29:31;;;;;;;47.50;33.78;;;;;;;-146.25;100.00;52347.91;2097003;28;20048;-72
2023/04/17 03:30:33;;;;;;;47.53;32.40;;;;;;;-146.25;100.00;52370.22;2088299;28;20114;-72
2023/04/17 03:31:39;;;;;;;44.60;33.67;;;;;;;-146.25;100.00;52327.66;2087995;28;20099;-72
2023/04/17 03:32:41;;;;;;;46.78;32.08;;;;;;;-146.25;100.00;52331.69;2087922;28;20057;-72
2023/04/17 03:33:43;;;;;;;44.55;32.67;;;;;;;-146.25;100.00;52384.41;2087996;28;20049;-72
2023/04/17 03:34:47;;;;;;;43.17;33.08;;;;;;;-146.25;100.00;52370.22;2088016;28;20046;-72
2023/04/17 03:35:49;;;;;;;48.92;34.42;;;;;;;-146.25;100.00;52356.03;2088253;28;20032;-72
2023/04/17 03:36:51;;;;;;;51.00;33.90;;;;;;;-146.25;100.00;52347.91;2088697;28;20867;-72
2023/04/17 03:37:52;;;;;;;46.53;33.92;;;;;;;-146.25;100.00;52347.91;2087784;28;20984;-71
2023/04/17 03:38:56;;;;;;;47.78;34.28;;;;;;;-146.25;100.00;52398.59;2088067;28;20174;-72
2023/04/17 03:39:58;;;;;;;47.63;33.58;;;;;;;-146.25;100.00;52354.00;2095746;28;28081;-72
2023/04/17 03:41:00;;;;;;;46.45;31.77;;;;;;;-146.25;100.00;52349.94;2087958;28;20061;-73
2023/04/17 03:42:04;;;;;;;47.13;34.30;;;;;;;-146.25;100.00;52388.47;2079363;28;20888;-72
2023/04/17 03:43:06;;;;;;;47.45;35.10;;;;;;;-146.25;100.00;52356.03;2088617;28;20037;-72
2023/04/17 03:44:09;;;;;;;46.05;33.35;;;;;;;-146.25;100.00;52376.31;2096229;28;20030;-73
2023/04/17 03:45:10;;;;;;;49.42;34.55;;;;;;;-146.25;100.00;52360.09;2087833;28;20037;-72
2023/04/17 03:46:12;;;;;;;47.65;34.55;;;;;;;-146.25;100.00;52317.50;2087940;28;20470;-72
2023/04/17 03:47:15;;;;;;;48.90;35.00;;;;;;;-146.25;100.00;52323.59;2087869;28;20045;-73
2023/04/17 03:48:19;;;;;;;51.88;36.35;;;;;;;-146.25;100.00;52345.91;2079152;28;24080;-73
2023/04/17 03:49:24;;;;;;;49.05;35.45;;;;;;;-146.25;100.00;52376.31;2080393;28;20061;-72
2023/04/17 03:50:28;;;;;;;47.70;34.05;;;;;;;-146.25;100.00;52388.47;2079935;28;20077;-73
2023/04/17 03:51:34;;;;;;;49.83;35.63;;;;;;;-146.25;100.00;52368.19;2079912;28;20042;-73
2023/04/17 03:52:44;;;;;;;46.03;33.65;;;;;;;-146.25;100.00;52345.91;2080513;28;20050;-72
2023/04/17 03:53:45;;;;;;;49.55;34.75;;;;;;;-146.25;100.00;52356.03;2087683;28;23314;-72
2023/04/17 03:54:50;;;;;;;52.38;35.50;;;;;;;-146.25;100.00;52388.47;2087580;28;20053;-72
2023/04/17 03:55:52;;;;;;;48.58;34.03;;;;;;;-146.25;100.00;52356.03;2088155;28;20484;-72
2023/04/17 03:57:02;;;;;;;46.35;33.50;;;;;;;-146.25;100.00;52360.09;2095961;28;20121;-72
2023/04/17 03:58:05;;;;;;;50.78;34.40;;;;;;;-146.25;100.00;52374.28;2087857;28;20172;-72
2023/04/17 03:59:07;;;;;;;51.53;36.38;;;;;;;-146.25;100.00;52360.09;2087892;28;20088;-72
2023/04/17 04:00:15;;;;;;;47.60;33.90;;;;;;;-146.25;100.00;52358.06;2087888;28;20037;-72
2023/04/17 04:01:27;;;;;;;44.70;32.95;;;;;;;-146.25;100.00;52368.19;2088787;28;20799;-71
2023/04/17 04:02:52;;;;;;;50.40;33.78;;;;;;;-146.25;100.00;52396.59;2095899;28;20992;-72
2023/04/17 04:03:59;;;;;;;50.65;35.75;;;;;;;-146.25;100.00;52370.22;2087774;28;20904;-72
2023/04/17 04:05:02;;;;;;;51.50;34.92;;;;;;;-146.25;100.00;52349.94;2079769;28;20165;-72
2023/04/17 04:06:06;;;;;;;47.53;34.65;;;;;;;-146.25;100.00;52333.72;2088852;28;20900;-72
2023/04/17 04:07:10;;;;;;;51.15;35.42;;;;;;;-146.25;100.00;52380.38;2087871;28;20041;-71
2023/04/17 04:08:13;;;;;;;49.80;33.50;;;;;;;-146.25;100.00;52339.81;2087601;28;20063;-72
2023/04/17 04:09:20;;;;;;;45.25;33.67;;;;;;;-146.25;100.00;52351.97;2088720;28;20045;-72
2023/04/17 04:10:22;;;;;;;47.85;33.88;;;;;;;-146.25;100.00;52327.66;2095786;28;20037;-72
2023/04/17 04:11:24;;;;;;;47.42;34.63;;;;;;;-146.25;100.00;52339.81;2079133;28;20042;-72
2023/04/17 04:12:25;;;;;;;49.13;34.58;;;;;;;-146.25;100.00;52347.91;2070845;28;20048;-72
2023/04/17 04:13:27;;;;;;;50.90;35.22;;;;;;;-146.25;100.00;52335.75;2087709;28;25001;-72
2023/04/17 04:14:32;;;;;;;47.85;33.92;;;;;;;-146.25;100.00;52343.88;2087448;28;20814;-71
2023/04/17 04:15:33;;;;;;;49.00;35.13;;;;;;;-146.25;100.00;52368.19;2086892;28;33394;-72
2023/04/17 04:16:38;;;;;;;47.30;34.90;;;;;;;-146.25;100.00;52351.97;2087622;28;20064;-72
2023/04/17 04:17:45;;;;;;;43.28;31.13;;;;;;;-146.25;100.00;52372.25;2080801;28;20050;-72
2023/04/17 04:18:47;;;;;;;47.78;33.10;;;;;;;-146.25;100.00;52364.13;2079542;28;20317;-72
2023/04/17 04:19:51;;;;;;;52.63;36.42;;;;;;;-146.25;100.00;52374.28;2079775;28;20902;-72
2023/04/17 04:20:53;;;;;;;50.78;35.90;;;;;;;-146.25;100.00;52372.25;2087438;28;20962;-72
2023/04/17 04:22:01;;;;;;;53.75;36.60;;;;;;;-146.25;100.00;52347.91;2095953;28;20042;-72
2023/04/17 04:23:12;;;;;;;52.30;35.33;;;;;;;-146.25;100.00;52366.16;2087764;28;20131;-72
2023/04/17 04:24:19;;;;;;;52.88;36.95;;;;;;;-146.25;100.00;52331.69;2079671;28;20979;-73
2023/04/17 04:25:21;;;;;;;50.45;36.20;;;;;;;-146.25;100.00;52354.00;2087523;28;31385;-72
2023/04/17 04:26:36;;;;;;;54.80;37.50;;;;;;;-146.25;100.00;52356.03;2093985;28;20823;-72
2023/04/17 04:27:38;;;;;;;53.33;37.78;;;;;;;-146.25;100.00;52386.44;2095987;28;20090;-72
2023/04/17 04:28:41;;;;;;;49.45;36.58;;;;;;;-146.25;100.00;52370.22;2088169;28;20045;-72
2023/04/17 04:29:50;;;;;;;52.33;35.38;;;;;;;-146.25;100.00;52362.13;2088959;28;20037;-72
2023/04/17 04:30:57;;;;;;;53.22;36.63;;;;;;;-146.25;100.00;52372.25;2096245;28;20072;-72
2023/04/17 04:32:03;;;;;;;50.30;35.22;;;;;;;-146.25;100.00;52329.66;2087466;28;20049;-73
2023/04/17 04:33:12;;;;;;;55.28;37.63;;;;;;;-146.25;100.00;52343.88;2090171;28;20049;-72
2023/04/17 04:34:15;;;;;;;54.97;37.25;;;;;;;-146.25;100.00;52339.81;2095589;28;24947;-72
2023/04/17 04:35:17;;;;;;;52.20;37.20;;;;;;;-146.25;100.00;52368.19;2087875;28;20947;-72
2023/04/17 04:36:20;;;;;;;59.70;39.63;;;;;;;-146.25;100.00;52343.88;2096048;28;20056;-72
2023/04/17 04:37:28;;;;;;;53.95;38.55;;;;;;;-146.25;100.00;52349.94;2095748;28;20044;-72
2023/04/17 04:38:36;;;;;;;53.10;37.53;;;;;;;-146.25;100.00;52368.19;2087993;28;20918;-72
2023/04/17 04:39:52;;;;;;;57.55;38.42;;;;;;;-146.25;100.00;52372.25;2098605;28;20048;-72
2023/04/17 04:41:00;;;;;;;52.45;37.08;;;;;;;-146.25;100.00;52402.66;2097376;28;20095;-72